createdAt,value
2022-11-28T00:02:20.221Z,3.43
2022-11-28T00:04:50.221Z,3.70
2022-11-28T00:07:17.128Z,5.67
2022-11-28T00:09:43.750Z,4.77
2022-11-28T00:12:10.346Z,5.20
2022-11-28T00:14:36.998Z,4.43
2022-11-28T00:17:03.684Z,3.70
2022-11-28T00:19:30.312Z,3.77
2022-11-28T00:21:56.938Z,5.73
2022-11-28T00:24:23.616Z,3.57
2022-11-28T00:26:50.241Z,4.27
2022-11-28T00:29:16.881Z,4.17
2022-11-28T00:31:44.142Z,4.77
2022-11-28T00:34:12.964Z,8.27
2022-11-28T00:36:39.636Z,6.93
2022-11-28T00:39:06.529Z,7.13
2022-11-28T00:41:36.192Z,7.27
2022-11-28T00:44:02.876Z,10.17
2022-11-28T00:46:29.660Z,8.83
2022-11-28T00:48:57.678Z,8.43
2022-11-28T00:51:25.979Z,8.23
2022-11-28T00:53:53.204Z,8.20
2022-11-28T00:56:21.533Z,9.40
2022-11-28T00:58:49.838Z,10.33
2022-11-28T01:01:18.302Z,6.13
2022-11-28T01:03:45.480Z,7.87
2022-11-28T01:06:20.452Z,7.77
2022-11-28T01:08:47.268Z,7.07
2022-11-28T01:11:14.175Z,7.77
2022-11-28T01:13:41.001Z,4.93
2022-11-28T01:16:08.582Z,4.57
2022-11-28T01:18:35.765Z,7.50
2022-11-28T01:21:02.471Z,6.23
2022-11-28T01:23:29.151Z,4.07
2022-11-28T01:25:55.789Z,6.00
2022-11-28T01:28:22.479Z,3.90
2022-11-28T01:30:49.136Z,3.33
2022-11-28T01:33:15.759Z,4.10
2022-11-28T01:35:42.429Z,6.23
2022-11-28T01:38:09.223Z,7.37
2022-11-28T01:40:35.822Z,5.37
2022-11-28T01:43:02.487Z,4.20
2022-11-28T01:45:31.221Z,6.80
2022-11-28T01:48:00.174Z,5.10
2022-11-28T01:50:27.302Z,3.63
2022-11-28T01:52:59.487Z,5.07
2022-11-28T01:55:27.404Z,4.80
2022-11-28T01:57:55.382Z,6.97
2022-11-28T02:00:22.450Z,3.43
2022-11-28T02:02:52.209Z,4.37
2022-11-28T02:05:20.171Z,4.57
2022-11-28T02:07:47.556Z,5.93
2022-11-28T02:10:16.459Z,4.30
2022-11-28T02:13:01.958Z,4.47
2022-11-28T02:15:47.199Z,4.17
2022-11-28T02:18:19.626Z,5.27
2022-11-28T02:21:09.472Z,4.23
2022-11-28T02:23:45.079Z,4.87
2022-11-28T02:26:17.802Z,4.30
2022-11-28T02:28:44.488Z,4.53
2022-11-28T02:31:36.636Z,3.33
2022-11-28T02:34:05.914Z,3.63
2022-11-28T02:36:35.747Z,6.30
2022-11-28T02:39:05.470Z,4.93
2022-11-28T02:41:42.207Z,3.23
2022-11-28T02:44:08.811Z,6.97
2022-11-28T02:46:46.419Z,4.50
2022-11-28T02:49:16.986Z,6.53
2022-11-28T02:52:10.129Z,6.70
2022-11-28T02:54:38.311Z,4.80
2022-11-28T02:57:05.643Z,7.40
2022-11-28T02:59:32.289Z,6.30
2022-11-28T03:01:59.609Z,7.27
2022-11-28T03:04:31.766Z,7.13
2022-11-28T03:07:17.014Z,5.67
2022-11-28T03:09:57.110Z,6.80
2022-11-28T03:12:37.188Z,6.90
2022-11-28T03:15:06.237Z,5.77
2022-11-28T03:17:41.873Z,8.20
2022-11-28T03:20:08.499Z,8.23
2022-11-28T03:22:35.129Z,7.70
2022-11-28T03:25:22.069Z,14.83
2022-11-28T03:27:54.051Z,21.17
2022-11-28T03:30:37.340Z,17.50
2022-11-28T03:33:04.349Z,13.23
2022-11-28T03:35:33.087Z,7.67
2022-11-28T03:38:19.964Z,7.77
2022-11-28T03:40:48.467Z,8.47
2022-11-28T03:43:20.539Z,7.80
2022-11-28T03:45:49.120Z,9.53
2022-11-28T03:48:21.528Z,7.13
2022-11-28T03:50:56.443Z,8.90
2022-11-28T03:53:27.074Z,8.10
2022-11-28T03:56:00.234Z,10.13
2022-11-28T03:58:30.425Z,8.87
2022-11-28T04:01:08.573Z,7.93
2022-11-28T04:03:40.551Z,7.07
2022-11-28T04:06:19.247Z,7.83
2022-11-28T04:08:49.999Z,6.43
2022-11-28T04:11:19.627Z,7.33
2022-11-28T04:13:53.241Z,8.33
2022-11-28T04:16:19.876Z,6.30
2022-11-28T04:19:00.091Z,7.03
2022-11-28T04:21:32.169Z,5.37
2022-11-28T04:24:02.320Z,5.47
2022-11-28T04:26:36.292Z,5.63
2022-11-28T04:29:06.348Z,5.83
2022-11-28T04:31:34.101Z,6.50
2022-11-28T04:34:03.380Z,7.10
2022-11-28T04:36:31.058Z,6.67
2022-11-28T04:38:59.013Z,7.80
2022-11-28T04:41:32.387Z,7.13
2022-11-28T04:44:22.165Z,7.07
2022-11-28T04:46:51.234Z,7.80
2022-11-28T04:49:17.971Z,9.87
2022-11-28T04:52:03.632Z,8.47
2022-11-28T04:54:45.676Z,8.73
2022-11-28T04:57:24.489Z,9.60
2022-11-28T04:59:51.633Z,9.27
2022-11-28T05:02:19.644Z,7.00
2022-11-28T05:04:46.480Z,10.57
2022-11-28T05:07:13.448Z,6.17
2022-11-28T05:09:40.219Z,8.07
2022-11-28T05:12:07.043Z,9.03
2022-11-28T05:14:33.780Z,8.27
2022-11-28T05:17:00.452Z,7.67
2022-11-28T05:19:27.136Z,9.53
2022-11-28T05:21:53.865Z,7.93
2022-11-28T05:24:22.348Z,8.93
2022-11-28T05:26:49.447Z,8.37
2022-11-28T05:29:16.219Z,7.80
2022-11-28T05:31:42.964Z,8.23
2022-11-28T05:34:09.843Z,8.17
2022-11-28T05:36:36.543Z,7.10
2022-11-28T05:39:03.815Z,9.07
2022-11-28T05:41:31.862Z,8.23
2022-11-28T05:43:59.309Z,10.87
2022-11-28T05:46:26.354Z,8.60
2022-11-28T05:48:53.045Z,8.73
2022-11-28T05:51:19.910Z,8.53
2022-11-28T05:53:46.595Z,11.97
2022-11-28T05:56:14.724Z,10.50
2022-11-28T05:58:41.422Z,8.90
2022-11-28T06:01:13.869Z,10.27
2022-11-28T06:03:40.780Z,7.37
2022-11-28T06:06:14.826Z,8.97
2022-11-28T06:08:42.176Z,12.00
2022-11-28T06:11:09.164Z,11.13
2022-11-28T06:13:36.278Z,9.13
2022-11-28T06:16:03.038Z,9.00
2022-11-28T06:18:29.857Z,9.23
2022-11-28T06:20:56.600Z,7.30
2022-11-28T06:23:23.347Z,7.47
2022-11-28T06:25:50.064Z,8.00
2022-11-28T06:28:16.757Z,11.20
2022-11-28T06:30:43.656Z,6.33
2022-11-28T06:33:10.371Z,7.20
2022-11-28T06:35:37.151Z,10.57
2022-11-28T06:38:03.767Z,8.93
2022-11-28T06:40:30.677Z,9.87
2022-11-28T06:42:57.358Z,8.50
2022-11-28T06:45:24.013Z,9.90
2022-11-28T06:47:50.816Z,12.60
2022-11-28T06:50:17.565Z,7.83
2022-11-28T06:52:44.284Z,9.07
2022-11-28T06:55:11.011Z,7.67
2022-11-28T06:57:39.033Z,10.40
2022-11-28T07:00:06.166Z,8.47
2022-11-28T07:02:32.970Z,14.03
2022-11-28T07:04:59.694Z,20.37
2022-11-28T07:07:26.481Z,16.17
2022-11-28T07:09:53.321Z,24.53
2022-11-28T07:12:20.037Z,16.83
2022-11-28T07:14:46.714Z,9.80
2022-11-28T07:17:13.482Z,10.67
2022-11-28T07:19:40.487Z,11.30
2022-11-28T07:22:07.595Z,7.07
2022-11-28T07:24:34.331Z,11.03
2022-11-28T07:27:01.044Z,7.53
2022-11-28T07:29:35.782Z,9.70
2022-11-28T07:32:03.484Z,10.90
2022-11-28T07:34:30.207Z,9.57
2022-11-28T07:36:56.995Z,11.77
2022-11-28T07:39:23.690Z,49.30
2022-11-28T07:41:50.419Z,7.87
2022-11-28T07:44:18.148Z,16.43
2022-11-28T07:46:45.764Z,16.47
2022-11-28T07:49:13.508Z,7.27
2022-11-28T07:51:40.704Z,12.43
2022-11-28T07:54:07.746Z,16.40
2022-11-28T07:57:04.473Z,12.47
2022-11-28T07:59:22.756Z,10.43
2022-11-28T08:01:49.437Z,9.30
2022-11-28T08:04:16.229Z,7.03
2022-11-28T08:06:44.376Z,5.10
2022-11-28T08:09:12.191Z,6.17
2022-11-28T08:11:38.827Z,5.33
2022-11-28T08:14:05.759Z,4.90
2022-11-28T08:16:32.606Z,5.77
2022-11-28T08:19:02.369Z,5.90
2022-11-28T08:21:30.712Z,5.63
2022-11-28T08:23:59.329Z,4.80
2022-11-28T08:26:30.392Z,3.87
2022-11-28T08:28:58.163Z,3.10
2022-11-28T08:31:26.674Z,4.43
2022-11-28T08:33:55.004Z,2.90
2022-11-28T08:36:22.182Z,4.23
2022-11-28T08:39:03.416Z,3.93
2022-11-28T08:41:36.028Z,5.40
2022-11-28T08:44:02.580Z,2.63
2022-11-28T08:46:29.263Z,2.93
2022-11-28T08:48:55.971Z,2.77
2022-11-28T08:51:29.002Z,3.50
2022-11-28T08:53:59.369Z,4.67
2022-11-28T08:56:26.568Z,3.73
2022-11-28T08:58:53.164Z,4.47
2022-11-28T09:01:21.316Z,2.20
2022-11-28T09:03:48.639Z,3.87
2022-11-28T09:06:16.100Z,4.90
2022-11-28T09:08:42.845Z,3.90
2022-11-28T09:11:11.094Z,5.97
2022-11-28T09:13:38.213Z,64.90
2022-11-28T09:16:05.317Z,3.37
2022-11-28T09:18:32.096Z,2.53
2022-11-28T09:20:59.849Z,2.93
2022-11-28T09:23:26.690Z,4.40
2022-11-28T09:25:53.389Z,2.23
2022-11-28T09:28:20.586Z,3.00
2022-11-28T09:30:47.526Z,3.97
2022-11-28T09:33:14.221Z,4.13
2022-11-28T09:35:40.894Z,3.13
2022-11-28T09:38:07.962Z,4.87
2022-11-28T09:40:39.094Z,3.40
2022-11-28T09:43:32.214Z,4.27
2022-11-28T09:46:00.602Z,2.93
2022-11-28T09:48:33.172Z,2.27
2022-11-28T09:51:03.701Z,2.30
2022-11-28T09:53:45.103Z,2.57
2022-11-28T09:56:15.808Z,2.20
2022-11-28T09:58:51.745Z,2.33
2022-11-28T10:01:26.515Z,2.30
2022-11-28T10:04:11.516Z,2.30
2022-11-28T10:06:55.668Z,2.33
2022-11-28T10:09:22.261Z,3.23
2022-11-28T10:11:51.940Z,2.13
2022-11-28T10:14:18.536Z,3.83
2022-11-28T10:17:04.132Z,3.83
2022-11-28T10:19:58.284Z,3.90
2022-11-28T10:22:40.275Z,2.60
2022-11-28T10:25:16.881Z,2.50
2022-11-28T10:27:43.516Z,3.47
2022-11-28T10:30:18.072Z,4.30
2022-11-28T10:32:47.278Z,2.50
2022-11-28T10:35:28.582Z,4.00
2022-11-28T10:37:55.638Z,3.30
2022-11-28T10:40:29.589Z,2.27
2022-11-28T10:43:02.052Z,3.10
2022-11-28T10:45:33.572Z,3.77
2022-11-28T10:48:37.147Z,3.23
2022-11-28T10:51:16.228Z,3.13
2022-11-28T10:53:45.919Z,6.20
2022-11-28T10:56:27.947Z,3.40
2022-11-28T10:59:13.230Z,4.47
2022-11-28T11:01:43.744Z,4.50
2022-11-28T11:04:17.701Z,4.43
2022-11-28T11:07:06.858Z,5.07
2022-11-28T11:09:33.569Z,4.10
2022-11-28T11:12:03.113Z,4.27
2022-11-28T11:14:43.148Z,4.20
2022-11-28T11:17:24.353Z,3.33
2022-11-28T11:19:51.019Z,3.40
2022-11-28T11:22:22.145Z,2.93
2022-11-28T11:25:05.830Z,5.27
2022-11-28T11:27:32.818Z,10.33
2022-11-28T11:29:59.475Z,6.03
2022-11-28T11:32:26.138Z,4.03
2022-11-28T11:34:53.603Z,3.33
2022-11-28T11:37:29.096Z,3.00
2022-11-28T11:39:55.782Z,2.30
2022-11-28T11:42:23.617Z,2.50
2022-11-28T11:44:50.767Z,2.27
2022-11-28T11:47:17.517Z,3.47
2022-11-28T11:49:44.491Z,2.27
2022-11-28T11:52:14.604Z,3.00
2022-11-28T11:54:47.341Z,2.50
2022-11-28T12:00:10.680Z,3.37
2022-11-28T12:02:42.102Z,2.43
2022-11-28T12:05:13.676Z,2.33
2022-11-28T12:07:40.473Z,2.80
2022-11-28T12:10:10.507Z,2.63
2022-11-28T12:12:37.886Z,3.67
2022-11-28T12:15:04.746Z,2.90
2022-11-28T12:17:58.365Z,2.40
2022-11-28T12:20:43.216Z,2.70
2022-11-28T12:23:14.319Z,2.10
2022-11-28T12:25:43.713Z,3.60
2022-11-28T12:28:32.511Z,3.27
2022-11-28T12:31:08.477Z,2.33
2022-11-28T12:33:44.214Z,2.70
2022-11-28T12:36:18.856Z,3.03
2022-11-28T12:39:01.310Z,2.97
2022-11-28T12:41:32.610Z,3.13
2022-11-28T12:44:25.303Z,2.60
2022-11-28T12:47:10.955Z,2.53
2022-11-28T12:49:47.077Z,2.47
2022-11-28T12:52:13.886Z,3.30
2022-11-28T12:54:40.509Z,2.70
2022-11-28T12:57:07.064Z,3.10
2022-11-28T12:59:40.948Z,3.00
2022-11-28T13:02:26.692Z,4.67
2022-11-28T13:05:12.375Z,3.20
2022-11-28T13:07:57.665Z,3.43
2022-11-28T13:10:26.966Z,3.30
2022-11-28T13:12:56.649Z,3.53
2022-11-28T13:15:42.146Z,3.00
2022-11-28T13:18:24.179Z,4.83
2022-11-28T13:21:20.167Z,3.87
2022-11-28T13:24:09.573Z,7.40
2022-11-28T13:26:48.436Z,7.77
2022-11-28T13:29:15.017Z,6.37
2022-11-28T13:31:58.786Z,5.70
2022-11-28T13:34:28.733Z,6.77
2022-11-28T13:39:51.832Z,10.90
2022-11-28T13:45:32.375Z,7.33
2022-11-28T13:48:00.419Z,8.17
2022-11-28T13:50:39.711Z,9.30
2022-11-28T13:53:06.289Z,9.03
2022-11-28T13:55:53.222Z,9.60
2022-11-28T13:58:22.591Z,19.10
2022-11-28T14:01:18.444Z,25.83
2022-11-28T14:03:48.222Z,10.70
2022-11-28T14:06:36.307Z,8.77
2022-11-28T14:09:16.827Z,12.00
2022-11-28T14:11:47.458Z,7.47
2022-11-28T14:14:33.339Z,9.10
2022-11-28T14:17:24.225Z,8.63
2022-11-28T14:20:09.666Z,7.63
2022-11-28T14:22:36.408Z,7.80
2022-11-28T14:25:09.249Z,8.07
2022-11-28T14:27:38.342Z,10.10
2022-11-28T14:30:06.841Z,12.73
2022-11-28T14:32:39.584Z,11.10
2022-11-28T14:35:12.082Z,12.10
2022-11-28T14:37:50.643Z,11.03
2022-11-28T14:40:36.361Z,8.13
2022-11-28T14:43:32.501Z,9.23
2022-11-28T14:46:19.597Z,10.67
2022-11-28T14:48:59.569Z,9.97
2022-11-28T14:51:45.778Z,9.30
2022-11-28T14:54:26.917Z,10.53
2022-11-28T14:56:59.483Z,14.90
2022-11-28T14:59:32.986Z,8.37
2022-11-28T15:02:12.964Z,11.87
2022-11-28T15:04:44.458Z,14.53
2022-11-28T15:07:21.722Z,12.40
2022-11-28T15:10:09.627Z,9.67
2022-11-28T15:12:54.731Z,14.77
2022-11-28T15:15:22.759Z,10.97
2022-11-28T15:17:51.481Z,15.87
2022-11-28T15:20:29.519Z,13.67
2022-11-28T15:22:56.414Z,11.27
2022-11-28T15:25:26.503Z,11.40
2022-11-28T15:27:54.163Z,13.13
2022-11-28T15:30:26.798Z,11.70
2022-11-28T15:32:57.169Z,18.07
2022-11-28T15:35:23.996Z,12.63
2022-11-28T15:37:53.263Z,12.67
2022-11-28T15:40:21.922Z,11.87
2022-11-28T15:42:49.133Z,11.07
2022-11-28T15:45:23.722Z,12.07
2022-11-28T15:47:51.319Z,10.13
2022-11-28T15:50:23.028Z,17.00
2022-11-28T15:53:00.176Z,17.20
2022-11-28T15:55:31.134Z,12.93
2022-11-28T15:58:11.892Z,13.03
2022-11-28T16:00:41.356Z,11.80
2022-11-28T16:03:12.378Z,10.97
2022-11-28T16:05:39.299Z,13.10
2022-11-28T16:08:11.986Z,14.27
2022-11-28T16:10:40.042Z,14.10
2022-11-28T16:13:11.405Z,11.90
2022-11-28T16:15:38.397Z,13.57
2022-11-28T16:18:07.135Z,17.20
2022-11-28T16:20:34.797Z,14.13
2022-11-28T16:23:07.341Z,15.93
2022-11-28T16:25:34.026Z,14.93
2022-11-28T16:28:00.672Z,16.90
2022-11-28T16:30:27.355Z,13.63
2022-11-28T16:32:55.619Z,12.87
2022-11-28T16:35:27.811Z,16.10
2022-11-28T16:38:03.688Z,14.10
2022-11-28T16:40:30.952Z,15.00
2022-11-28T16:42:58.825Z,14.70
2022-11-28T16:45:27.314Z,14.80
2022-11-28T16:48:00.752Z,16.47
2022-11-28T16:50:27.589Z,14.53
2022-11-28T16:52:55.143Z,17.10
2022-11-28T16:55:31.757Z,14.03
2022-11-28T16:58:07.481Z,16.67
2022-11-28T17:00:34.621Z,17.80
2022-11-28T17:03:01.248Z,18.97
2022-11-28T17:05:27.797Z,17.97
2022-11-28T17:07:54.634Z,17.67
2022-11-28T17:10:21.336Z,17.17
2022-11-28T17:12:47.968Z,15.57
2022-11-28T17:15:16.441Z,15.50
2022-11-28T17:17:43.202Z,20.90
2022-11-28T17:20:11.611Z,19.03
2022-11-28T17:22:41.349Z,15.87
2022-11-28T17:25:13.733Z,18.63
2022-11-28T17:27:40.663Z,21.03
2022-11-28T17:30:07.776Z,17.93
2022-11-28T17:32:34.566Z,20.67
2022-11-28T17:35:04.072Z,16.83
2022-11-28T17:37:31.468Z,20.17
2022-11-28T17:40:18.127Z,17.73
2022-11-28T17:42:46.137Z,20.37
2022-11-28T17:45:14.702Z,19.07
2022-11-28T17:47:42.870Z,18.60
2022-11-28T17:50:11.431Z,15.47
2022-11-28T17:52:38.106Z,18.40
2022-11-28T17:55:07.267Z,18.70
2022-11-28T17:57:34.874Z,18.33
2022-11-28T18:00:01.691Z,17.30
2022-11-28T18:02:29.183Z,16.43
2022-11-28T18:04:55.907Z,19.03
2022-11-28T18:07:22.922Z,20.10
2022-11-28T18:09:49.622Z,18.03
2022-11-28T18:12:16.228Z,21.87
2022-11-28T18:14:43.030Z,16.93
2022-11-28T18:17:09.695Z,15.67
2022-11-28T18:19:36.407Z,21.43
2022-11-28T18:22:03.127Z,21.80
2022-11-28T18:24:29.961Z,17.10
2022-11-28T18:26:56.832Z,21.97
2022-11-28T18:29:23.485Z,14.93
2022-11-28T18:31:50.110Z,18.20
2022-11-28T18:34:16.907Z,21.23
2022-11-28T18:36:43.583Z,16.97
2022-11-28T18:39:12.550Z,16.93
2022-11-28T18:41:40.045Z,21.80
2022-11-28T18:44:07.847Z,23.80
2022-11-28T18:46:34.627Z,19.60
2022-11-28T18:49:01.809Z,19.53
2022-11-28T18:51:29.594Z,18.80
2022-11-28T18:53:56.633Z,20.60
2022-11-28T18:56:23.750Z,16.77
2022-11-28T18:58:53.881Z,21.13
2022-11-28T19:01:22.568Z,18.93
2022-11-28T19:03:49.958Z,17.03
2022-11-28T19:06:18.335Z,18.87
2022-11-28T19:08:45.887Z,18.47
2022-11-28T19:11:14.556Z,19.07
2022-11-28T19:13:42.458Z,19.60
2022-11-28T19:16:10.936Z,18.60
2022-11-28T19:18:37.912Z,21.63
2022-11-28T19:21:08.020Z,23.03
2022-11-28T19:23:34.706Z,25.60
2022-11-28T19:26:02.471Z,30.97
2022-11-28T19:28:29.612Z,36.07
2022-11-28T19:30:57.621Z,38.33
2022-11-28T19:33:24.497Z,32.37
2022-11-28T19:35:51.069Z,25.13
2022-11-28T19:38:17.847Z,23.67
2022-11-28T19:40:44.619Z,24.13
2022-11-28T19:43:11.315Z,21.60
2022-11-28T19:45:37.929Z,23.97
2022-11-28T19:48:04.985Z,19.10
2022-11-28T19:50:31.861Z,20.90
2022-11-28T19:52:58.505Z,21.70
2022-11-28T19:55:25.291Z,26.80
2022-11-28T19:57:52.870Z,25.80
2022-11-28T20:00:19.830Z,23.43
2022-11-28T20:02:47.170Z,20.03
2022-11-28T20:05:13.904Z,22.80
2022-11-28T20:07:40.625Z,21.77
2022-11-28T20:10:08.239Z,23.57
2022-11-28T20:12:36.242Z,27.63
2022-11-28T20:15:02.910Z,34.07
2022-11-28T20:17:29.634Z,27.53
2022-11-28T20:19:58.436Z,32.63
2022-11-28T20:22:25.752Z,29.03
2022-11-28T20:24:52.650Z,51.47
2022-11-28T20:27:19.253Z,24.53
2022-11-28T20:29:46.640Z,28.87
2022-11-28T20:32:13.470Z,19.70
2022-11-28T20:34:40.120Z,19.57
2022-11-28T20:37:06.818Z,17.73
2022-11-28T20:39:33.428Z,20.33
2022-11-28T20:42:00.018Z,16.57
2022-11-28T20:44:27.719Z,17.53
2022-11-28T20:46:54.458Z,21.00
2022-11-28T20:49:21.196Z,18.07
2022-11-28T20:51:48.184Z,20.00
2022-11-28T20:54:14.839Z,18.33
2022-11-28T20:57:05.476Z,17.97
2022-11-28T20:59:29.627Z,19.87
2022-11-28T21:01:56.242Z,17.53
2022-11-28T21:04:22.960Z,21.40
2022-11-28T21:06:49.667Z,20.23
2022-11-28T21:09:18.035Z,18.87
2022-11-28T21:12:01.031Z,18.63
2022-11-28T21:14:28.698Z,16.67
2022-11-28T21:16:55.656Z,19.03
2022-11-28T21:19:22.527Z,19.40
2022-11-28T21:21:49.115Z,18.87
2022-11-28T21:24:15.780Z,19.30
2022-11-28T21:26:47.872Z,17.67
2022-11-28T21:29:18.456Z,17.57
2022-11-28T21:31:45.527Z,21.27
2022-11-28T21:34:14.653Z,23.43
2022-11-28T21:36:41.822Z,20.83
2022-11-28T21:39:11.626Z,23.23
2022-11-28T21:41:38.249Z,16.30
2022-11-28T21:44:04.883Z,18.87
2022-11-28T21:46:31.437Z,22.00
2022-11-28T21:48:58.764Z,17.73
2022-11-28T21:51:25.828Z,19.43
2022-11-28T21:53:52.485Z,21.27
2022-11-28T21:56:19.899Z,23.13
2022-11-28T21:58:47.541Z,16.27
2022-11-28T22:01:14.756Z,18.80
2022-11-28T22:03:43.763Z,24.03
2022-11-28T22:06:10.859Z,18.83
2022-11-28T22:08:37.827Z,20.80
2022-11-28T22:11:08.451Z,21.73
2022-11-28T22:13:35.677Z,17.37
2022-11-28T22:16:07.854Z,18.10
2022-11-28T22:18:34.772Z,19.47
2022-11-28T22:21:06.478Z,21.23
2022-11-28T22:23:37.052Z,17.37
2022-11-28T22:26:04.440Z,20.07
2022-11-28T22:28:34.819Z,18.30
2022-11-28T22:31:09.316Z,17.23
2022-11-28T22:33:37.729Z,26.93
2022-11-28T22:36:08.644Z,16.07
2022-11-28T22:38:35.488Z,19.63
2022-11-28T22:41:08.716Z,19.33
2022-11-28T22:43:35.999Z,17.27
2022-11-28T22:46:02.998Z,19.87
2022-11-28T22:48:30.725Z,20.77
2022-11-28T22:50:58.078Z,19.07
2022-11-28T22:53:24.946Z,19.60
2022-11-28T22:55:51.720Z,19.73
2022-11-28T22:58:18.801Z,21.57
2022-11-28T23:00:45.490Z,18.57
2022-11-28T23:03:12.307Z,21.57
2022-11-28T23:05:39.555Z,22.93
2022-11-28T23:08:07.697Z,18.77
2022-11-28T23:10:36.473Z,21.57
2022-11-28T23:13:03.318Z,23.13
2022-11-28T23:15:29.922Z,19.13
2022-11-28T23:17:56.934Z,21.03
2022-11-28T23:20:24.691Z,20.07
2022-11-28T23:22:51.574Z,18.17
2022-11-28T23:25:18.317Z,19.77
2022-11-28T23:27:44.977Z,21.43
2022-11-28T23:30:12.257Z,19.50
2022-11-28T23:32:38.874Z,19.40
2022-11-28T23:35:05.763Z,22.43
2022-11-28T23:37:36.482Z,22.43
2022-11-28T23:40:03.753Z,20.77
2022-11-28T23:42:30.486Z,20.93
2022-11-28T23:44:57.087Z,21.43
2022-11-28T23:47:23.690Z,17.77
2022-11-28T23:49:50.352Z,17.73
2022-11-28T23:52:16.982Z,21.40
2022-11-28T23:54:43.896Z,18.27
2022-11-28T23:57:10.570Z,22.37
2022-11-28T23:59:37.134Z,20.07
